sensor_id;sensor_type;location;lat;lon;timestamp;P1;durP1;ratioP1;P2;durP2;ratioP2
35578;SDS011;21687;48.900;9.188;2022-12-20T00:00:57;18.80;;;11.67;;
35578;SDS011;21687;48.900;9.188;2022-12-20T00:03:24;19.23;;;12.87;;
35578;SDS011;21687;48.900;9.188;2022-12-20T00:05:50;18.00;;;11.60;;
35578;SDS011;21687;48.900;9.188;2022-12-20T00:08:16;17.00;;;11.13;;
35578;SDS011;21687;48.900;9.188;2022-12-20T00:10:43;18.63;;;11.90;;
35578;SDS011;21687;48.900;9.188;2022-12-20T00:13:10;19.17;;;11.87;;
35578;SDS011;21687;48.900;9.188;2022-12-20T00:15:37;16.67;;;11.10;;
35578;SDS011;21687;48.900;9.188;2022-12-20T00:18:03;19.47;;;11.57;;
35578;SDS011;21687;48.900;9.188;2022-12-20T00:20:29;15.70;;;11.53;;
35578;SDS011;21687;48.900;9.188;2022-12-20T00:22:56;18.97;;;12.40;;
35578;SDS011;21687;48.900;9.188;2022-12-20T00:25:22;18.57;;;12.20;;
35578;SDS011;21687;48.900;9.188;2022-12-20T00:27:48;22.97;;;12.93;;
35578;SDS011;21687;48.900;9.188;2022-12-20T00:30:16;18.00;;;12.63;;
35578;SDS011;21687;48.900;9.188;2022-12-20T00:32:42;19.80;;;11.67;;
35578;SDS011;21687;48.900;9.188;2022-12-20T00:35:09;19.97;;;12.53;;
35578;SDS011;21687;48.900;9.188;2022-12-20T00:37:36;19.63;;;11.70;;
35578;SDS011;21687;48.900;9.188;2022-12-20T00:40:03;18.63;;;11.23;;
35578;SDS011;21687;48.900;9.188;2022-12-20T00:42:30;18.73;;;11.47;;
35578;SDS011;21687;48.900;9.188;2022-12-20T00:44:57;18.87;;;11.63;;
35578;SDS011;21687;48.900;9.188;2022-12-20T00:47:23;16.30;;;10.90;;
35578;SDS011;21687;48.900;9.188;2022-12-20T00:49:49;17.60;;;11.47;;
35578;SDS011;21687;48.900;9.188;2022-12-20T00:52:15;17.93;;;12.33;;
35578;SDS011;21687;48.900;9.188;2022-12-20T00:54:42;18.10;;;11.97;;
35578;SDS011;21687;48.900;9.188;2022-12-20T00:57:08;18.53;;;11.67;;
35578;SDS011;21687;48.900;9.188;2022-12-20T00:59:34;19.33;;;11.63;;
35578;SDS011;21687;48.900;9.188;2022-12-20T01:02:00;21.03;;;11.87;;
35578;SDS011;21687;48.900;9.188;2022-12-20T01:04:26;17.40;;;12.20;;
35578;SDS011;21687;48.900;9.188;2022-12-20T01:06:53;19.30;;;11.97;;
35578;SDS011;21687;48.900;9.188;2022-12-20T01:09:19;20.87;;;11.93;;
35578;SDS011;21687;48.900;9.188;2022-12-20T01:11:45;16.93;;;11.87;;
35578;SDS011;21687;48.900;9.188;2022-12-20T01:14:13;21.60;;;12.37;;
35578;SDS011;21687;48.900;9.188;2022-12-20T01:16:45;18.07;;;11.17;;
35578;SDS011;21687;48.900;9.188;2022-12-20T01:19:12;20.17;;;12.80;;
35578;SDS011;21687;48.900;9.188;2022-12-20T01:21:40;20.13;;;12.87;;
35578;SDS011;21687;48.900;9.188;2022-12-20T01:24:12;17.47;;;11.87;;
35578;SDS011;21687;48.900;9.188;2022-12-20T01:26:40;20.17;;;12.40;;
35578;SDS011;21687;48.900;9.188;2022-12-20T01:29:07;21.17;;;13.07;;
35578;SDS011;21687;48.900;9.188;2022-12-20T01:31:33;19.03;;;12.73;;
35578;SDS011;21687;48.900;9.188;2022-12-20T01:34:00;19.83;;;12.33;;
35578;SDS011;21687;48.900;9.188;2022-12-20T01:36:33;19.30;;;12.00;;
35578;SDS011;21687;48.900;9.188;2022-12-20T01:39:13;19.13;;;11.97;;
35578;SDS011;21687;48.900;9.188;2022-12-20T01:41:41;19.60;;;12.77;;
35578;SDS011;21687;48.900;9.188;2022-12-20T01:46:44;19.77;;;11.87;;
35578;SDS011;21687;48.900;9.188;2022-12-20T01:49:16;15.23;;;11.63;;
35578;SDS011;21687;48.900;9.188;2022-12-20T01:51:55;21.83;;;12.50;;
35578;SDS011;21687;48.900;9.188;2022-12-20T01:54:38;19.03;;;12.17;;
35578;SDS011;21687;48.900;9.188;2022-12-20T01:57:15;20.43;;;12.87;;
35578;SDS011;21687;48.900;9.188;2022-12-20T01:59:55;20.30;;;12.33;;
35578;SDS011;21687;48.900;9.188;2022-12-20T02:02:22;20.63;;;12.37;;
35578;SDS011;21687;48.900;9.188;2022-12-20T02:04:50;23.60;;;12.57;;
35578;SDS011;21687;48.900;9.188;2022-12-20T02:07:19;17.77;;;11.13;;
35578;SDS011;21687;48.900;9.188;2022-12-20T02:09:48;18.50;;;12.07;;
35578;SDS011;21687;48.900;9.188;2022-12-20T02:12:18;20.50;;;11.97;;
35578;SDS011;21687;48.900;9.188;2022-12-20T02:17:41;20.03;;;12.50;;
35578;SDS011;21687;48.900;9.188;2022-12-20T02:20:18;19.07;;;12.27;;
35578;SDS011;21687;48.900;9.188;2022-12-20T02:23:00;19.37;;;12.07;;
35578;SDS011;21687;48.900;9.188;2022-12-20T02:26:52;16.70;;;11.70;;
35578;SDS011;21687;48.900;9.188;2022-12-20T02:31:33;18.77;;;12.60;;
35578;SDS011;21687;48.900;9.188;2022-12-20T02:34:19;19.70;;;11.87;;
35578;SDS011;21687;48.900;9.188;2022-12-20T02:36:49;17.77;;;12.43;;
35578;SDS011;21687;48.900;9.188;2022-12-20T02:39:16;19.27;;;12.67;;
35578;SDS011;21687;48.900;9.188;2022-12-20T02:41:47;20.13;;;12.37;;
35578;SDS011;21687;48.900;9.188;2022-12-20T02:44:17;19.13;;;12.70;;
35578;SDS011;21687;48.900;9.188;2022-12-20T02:47:06;19.03;;;12.40;;
35578;SDS011;21687;48.900;9.188;2022-12-20T02:49:37;20.00;;;12.73;;
35578;SDS011;21687;48.900;9.188;2022-12-20T02:52:06;19.80;;;12.30;;
35578;SDS011;21687;48.900;9.188;2022-12-20T02:54:35;19.23;;;12.40;;
35578;SDS011;21687;48.900;9.188;2022-12-20T02:57:16;18.80;;;11.77;;
35578;SDS011;21687;48.900;9.188;2022-12-20T03:02:31;18.07;;;12.00;;
35578;SDS011;21687;48.900;9.188;2022-12-20T03:05:19;20.73;;;13.60;;
35578;SDS011;21687;48.900;9.188;2022-12-20T03:07:48;20.80;;;12.97;;
35578;SDS011;21687;48.900;9.188;2022-12-20T03:10:15;17.93;;;12.23;;
35578;SDS011;21687;48.900;9.188;2022-12-20T03:12:42;22.53;;;13.03;;
35578;SDS011;21687;48.900;9.188;2022-12-20T03:15:08;18.30;;;12.40;;
35578;SDS011;21687;48.900;9.188;2022-12-20T03:17:35;21.57;;;13.40;;
35578;SDS011;21687;48.900;9.188;2022-12-20T03:20:02;17.27;;;12.13;;
35578;SDS011;21687;48.900;9.188;2022-12-20T03:22:30;19.63;;;12.73;;
35578;SDS011;21687;48.900;9.188;2022-12-20T03:24:58;21.80;;;13.83;;
35578;SDS011;21687;48.900;9.188;2022-12-20T03:27:24;21.53;;;13.07;;
35578;SDS011;21687;48.900;9.188;2022-12-20T03:29:54;20.87;;;12.47;;
35578;SDS011;21687;48.900;9.188;2022-12-20T03:32:20;19.27;;;13.07;;
35578;SDS011;21687;48.900;9.188;2022-12-20T03:34:47;20.97;;;12.57;;
35578;SDS011;21687;48.900;9.188;2022-12-20T03:37:13;19.73;;;11.80;;
35578;SDS011;21687;48.900;9.188;2022-12-20T03:39:40;20.73;;;12.40;;
35578;SDS011;21687;48.900;9.188;2022-12-20T03:42:06;19.60;;;12.53;;
35578;SDS011;21687;48.900;9.188;2022-12-20T03:44:32;19.37;;;11.67;;
35578;SDS011;21687;48.900;9.188;2022-12-20T03:46:59;17.77;;;11.73;;
35578;SDS011;21687;48.900;9.188;2022-12-20T03:49:25;18.93;;;12.10;;
35578;SDS011;21687;48.900;9.188;2022-12-20T03:51:51;17.23;;;11.30;;
35578;SDS011;21687;48.900;9.188;2022-12-20T03:54:17;16.53;;;11.97;;
35578;SDS011;21687;48.900;9.188;2022-12-20T03:56:44;19.03;;;11.03;;
35578;SDS011;21687;48.900;9.188;2022-12-20T03:59:10;15.43;;;10.80;;
35578;SDS011;21687;48.900;9.188;2022-12-20T04:01:36;17.17;;;11.23;;
35578;SDS011;21687;48.900;9.188;2022-12-20T04:04:03;15.87;;;10.37;;
35578;SDS011;21687;48.900;9.188;2022-12-20T04:06:29;16.23;;;10.47;;
35578;SDS011;21687;48.900;9.188;2022-12-20T04:08:56;16.67;;;10.63;;
35578;SDS011;21687;48.900;9.188;2022-12-20T04:11:22;14.03;;;10.00;;
35578;SDS011;21687;48.900;9.188;2022-12-20T04:13:49;15.37;;;10.00;;
35578;SDS011;21687;48.900;9.188;2022-12-20T04:16:17;16.23;;;10.10;;
35578;SDS011;21687;48.900;9.188;2022-12-20T04:18:45;16.00;;;10.43;;
35578;SDS011;21687;48.900;9.188;2022-12-20T04:21:12;16.97;;;10.77;;
35578;SDS011;21687;48.900;9.188;2022-12-20T04:23:39;15.70;;;10.67;;
35578;SDS011;21687;48.900;9.188;2022-12-20T04:26:06;17.53;;;10.57;;
35578;SDS011;21687;48.900;9.188;2022-12-20T04:28:34;14.83;;;10.37;;
35578;SDS011;21687;48.900;9.188;2022-12-20T04:31:00;13.30;;;9.50;;
35578;SDS011;21687;48.900;9.188;2022-12-20T04:33:27;15.67;;;9.97;;
35578;SDS011;21687;48.900;9.188;2022-12-20T04:35:54;16.67;;;10.60;;
35578;SDS011;21687;48.900;9.188;2022-12-20T04:38:21;17.03;;;10.17;;
35578;SDS011;21687;48.900;9.188;2022-12-20T04:40:48;16.03;;;10.93;;
35578;SDS011;21687;48.900;9.188;2022-12-20T04:43:16;14.43;;;10.70;;
35578;SDS011;21687;48.900;9.188;2022-12-20T04:45:43;15.30;;;10.40;;
35578;SDS011;21687;48.900;9.188;2022-12-20T04:48:11;16.27;;;10.20;;
35578;SDS011;21687;48.900;9.188;2022-12-20T04:50:37;16.67;;;9.53;;
35578;SDS011;21687;48.900;9.188;2022-12-20T04:53:04;13.87;;;9.50;;
35578;SDS011;21687;48.900;9.188;2022-12-20T04:55:49;15.07;;;9.70;;
35578;SDS011;21687;48.900;9.188;2022-12-20T04:58:17;15.43;;;9.40;;
35578;SDS011;21687;48.900;9.188;2022-12-20T05:00:43;14.73;;;10.03;;
35578;SDS011;21687;48.900;9.188;2022-12-20T05:03:09;14.27;;;9.13;;
35578;SDS011;21687;48.900;9.188;2022-12-20T05:05:35;15.70;;;9.73;;
35578;SDS011;21687;48.900;9.188;2022-12-20T05:08:01;12.27;;;8.70;;
35578;SDS011;21687;48.900;9.188;2022-12-20T05:10:28;14.30;;;8.47;;
35578;SDS011;21687;48.900;9.188;2022-12-20T05:12:54;11.57;;;8.03;;
35578;SDS011;21687;48.900;9.188;2022-12-20T05:15:20;12.63;;;8.57;;
35578;SDS011;21687;48.900;9.188;2022-12-20T05:17:47;11.63;;;7.90;;
35578;SDS011;21687;48.900;9.188;2022-12-20T05:20:13;13.33;;;8.67;;
35578;SDS011;21687;48.900;9.188;2022-12-20T05:22:39;12.63;;;8.40;;
35578;SDS011;21687;48.900;9.188;2022-12-20T05:25:24;11.87;;;8.53;;
35578;SDS011;21687;48.900;9.188;2022-12-20T05:28:09;14.63;;;8.53;;
35578;SDS011;21687;48.900;9.188;2022-12-20T05:30:35;11.67;;;8.20;;
35578;SDS011;21687;48.900;9.188;2022-12-20T05:33:02;12.63;;;8.47;;
35578;SDS011;21687;48.900;9.188;2022-12-20T05:35:28;15.00;;;8.77;;
35578;SDS011;21687;48.900;9.188;2022-12-20T05:37:56;13.70;;;8.63;;
35578;SDS011;21687;48.900;9.188;2022-12-20T05:40:22;13.40;;;8.07;;
35578;SDS011;21687;48.900;9.188;2022-12-20T05:42:49;10.27;;;7.67;;
35578;SDS011;21687;48.900;9.188;2022-12-20T05:45:15;12.30;;;7.63;;
35578;SDS011;21687;48.900;9.188;2022-12-20T05:47:41;11.37;;;7.50;;
35578;SDS011;21687;48.900;9.188;2022-12-20T05:50:08;12.50;;;8.53;;
35578;SDS011;21687;48.900;9.188;2022-12-20T05:52:35;10.93;;;7.30;;
35578;SDS011;21687;48.900;9.188;2022-12-20T05:55:01;14.37;;;8.13;;
35578;SDS011;21687;48.900;9.188;2022-12-20T05:57:27;11.63;;;8.00;;
35578;SDS011;21687;48.900;9.188;2022-12-20T05:59:53;13.30;;;8.63;;
35578;SDS011;21687;48.900;9.188;2022-12-20T06:02:20;14.80;;;8.57;;
35578;SDS011;21687;48.900;9.188;2022-12-20T06:04:46;12.17;;;8.13;;
35578;SDS011;21687;48.900;9.188;2022-12-20T06:07:12;13.50;;;8.60;;
35578;SDS011;21687;48.900;9.188;2022-12-20T06:09:38;15.87;;;8.93;;
35578;SDS011;21687;48.900;9.188;2022-12-20T06:12:05;13.93;;;8.77;;
35578;SDS011;21687;48.900;9.188;2022-12-20T06:14:31;13.40;;;8.97;;
35578;SDS011;21687;48.900;9.188;2022-12-20T06:16:57;14.43;;;8.87;;
35578;SDS011;21687;48.900;9.188;2022-12-20T06:19:23;13.23;;;8.53;;
35578;SDS011;21687;48.900;9.188;2022-12-20T06:21:50;14.53;;;9.60;;
35578;SDS011;21687;48.900;9.188;2022-12-20T06:24:16;14.87;;;8.87;;
35578;SDS011;21687;48.900;9.188;2022-12-20T06:26:42;17.73;;;9.83;;
35578;SDS011;21687;48.900;9.188;2022-12-20T06:29:09;14.83;;;9.03;;
35578;SDS011;21687;48.900;9.188;2022-12-20T06:31:38;13.23;;;9.30;;
35578;SDS011;21687;48.900;9.188;2022-12-20T06:34:05;14.83;;;9.83;;
35578;SDS011;21687;48.900;9.188;2022-12-20T06:36:32;14.00;;;10.13;;
35578;SDS011;21687;48.900;9.188;2022-12-20T06:38:58;14.40;;;9.60;;
35578;SDS011;21687;48.900;9.188;2022-12-20T06:41:24;18.87;;;12.17;;
35578;SDS011;21687;48.900;9.188;2022-12-20T06:43:51;17.57;;;11.37;;
35578;SDS011;21687;48.900;9.188;2022-12-20T06:46:17;15.47;;;9.70;;
35578;SDS011;21687;48.900;9.188;2022-12-20T06:48:43;14.93;;;9.80;;
35578;SDS011;21687;48.900;9.188;2022-12-20T06:51:10;14.77;;;9.67;;
35578;SDS011;21687;48.900;9.188;2022-12-20T06:53:37;15.07;;;8.87;;
35578;SDS011;21687;48.900;9.188;2022-12-20T06:56:04;12.93;;;8.17;;
35578;SDS011;21687;48.900;9.188;2022-12-20T06:58:32;13.70;;;9.47;;
35578;SDS011;21687;48.900;9.188;2022-12-20T07:00:58;14.73;;;8.67;;
35578;SDS011;21687;48.900;9.188;2022-12-20T07:03:25;12.57;;;8.30;;
35578;SDS011;21687;48.900;9.188;2022-12-20T07:05:53;13.63;;;9.97;;
35578;SDS011;21687;48.900;9.188;2022-12-20T07:08:20;12.67;;;9.00;;
35578;SDS011;21687;48.900;9.188;2022-12-20T07:10:48;20.13;;;9.10;;
35578;SDS011;21687;48.900;9.188;2022-12-20T07:20:02;16.33;;;8.50;;
35578;SDS011;21687;48.900;9.188;2022-12-20T07:22:31;14.27;;;9.27;;
35578;SDS011;21687;48.900;9.188;2022-12-20T07:25:02;15.10;;;10.07;;
35578;SDS011;21687;48.900;9.188;2022-12-20T07:27:31;15.47;;;10.10;;
35578;SDS011;21687;48.900;9.188;2022-12-20T07:29:58;11.33;;;8.30;;
35578;SDS011;21687;48.900;9.188;2022-12-20T07:32:24;12.60;;;9.00;;
35578;SDS011;21687;48.900;9.188;2022-12-20T07:34:51;16.30;;;9.53;;
35578;SDS011;21687;48.900;9.188;2022-12-20T07:37:17;14.43;;;9.17;;
35578;SDS011;21687;48.900;9.188;2022-12-20T07:39:44;14.17;;;9.20;;
35578;SDS011;21687;48.900;9.188;2022-12-20T07:42:10;15.17;;;9.50;;
35578;SDS011;21687;48.900;9.188;2022-12-20T07:44:40;16.80;;;9.73;;
35578;SDS011;21687;48.900;9.188;2022-12-20T07:47:06;13.80;;;9.23;;
35578;SDS011;21687;48.900;9.188;2022-12-20T07:49:34;17.53;;;10.20;;
35578;SDS011;21687;48.900;9.188;2022-12-20T07:52:00;18.30;;;9.67;;
35578;SDS011;21687;48.900;9.188;2022-12-20T07:54:31;15.13;;;10.27;;
35578;SDS011;21687;48.900;9.188;2022-12-20T07:57:02;16.23;;;9.97;;
35578;SDS011;21687;48.900;9.188;2022-12-20T07:59:40;13.00;;;8.87;;
35578;SDS011;21687;48.900;9.188;2022-12-20T08:02:12;13.17;;;8.20;;
35578;SDS011;21687;48.900;9.188;2022-12-20T08:04:42;15.57;;;9.07;;
35578;SDS011;21687;48.900;9.188;2022-12-20T08:07:10;12.93;;;9.00;;
35578;SDS011;21687;48.900;9.188;2022-12-20T08:09:38;15.60;;;8.47;;
35578;SDS011;21687;48.900;9.188;2022-12-20T08:12:11;15.27;;;8.37;;
35578;SDS011;21687;48.900;9.188;2022-12-20T08:14:40;12.17;;;7.83;;
35578;SDS011;21687;48.900;9.188;2022-12-20T08:17:07;14.00;;;8.90;;
35578;SDS011;21687;48.900;9.188;2022-12-20T08:19:34;14.17;;;8.03;;
35578;SDS011;21687;48.900;9.188;2022-12-20T08:22:01;11.30;;;7.73;;
35578;SDS011;21687;48.900;9.188;2022-12-20T08:24:29;11.20;;;7.83;;
35578;SDS011;21687;48.900;9.188;2022-12-20T08:26:57;12.17;;;7.13;;
35578;SDS011;21687;48.900;9.188;2022-12-20T08:29:24;10.67;;;7.13;;
35578;SDS011;21687;48.900;9.188;2022-12-20T08:31:51;11.00;;;7.33;;
35578;SDS011;21687;48.900;9.188;2022-12-20T08:34:18;12.00;;;7.53;;
35578;SDS011;21687;48.900;9.188;2022-12-20T08:36:44;14.23;;;7.63;;
35578;SDS011;21687;48.900;9.188;2022-12-20T08:39:12;13.67;;;8.00;;
35578;SDS011;21687;48.900;9.188;2022-12-20T08:41:38;9.63;;;7.60;;
35578;SDS011;21687;48.900;9.188;2022-12-20T08:44:05;12.10;;;7.10;;
35578;SDS011;21687;48.900;9.188;2022-12-20T08:46:32;10.90;;;6.87;;
35578;SDS011;21687;48.900;9.188;2022-12-20T08:49:01;8.60;;;6.63;;
35578;SDS011;21687;48.900;9.188;2022-12-20T08:51:28;9.87;;;7.43;;
35578;SDS011;21687;48.900;9.188;2022-12-20T08:53:55;12.63;;;8.20;;
35578;SDS011;21687;48.900;9.188;2022-12-20T08:56:23;11.83;;;7.47;;
35578;SDS011;21687;48.900;9.188;2022-12-20T08:58:49;13.63;;;7.27;;
35578;SDS011;21687;48.900;9.188;2022-12-20T09:01:22;10.87;;;7.40;;
35578;SDS011;21687;48.900;9.188;2022-12-20T09:03:51;12.97;;;7.50;;
35578;SDS011;21687;48.900;9.188;2022-12-20T09:06:18;11.27;;;7.23;;
35578;SDS011;21687;48.900;9.188;2022-12-20T09:08:46;11.60;;;6.60;;
35578;SDS011;21687;48.900;9.188;2022-12-20T09:11:14;12.73;;;7.37;;
35578;SDS011;21687;48.900;9.188;2022-12-20T09:13:47;11.30;;;7.57;;
35578;SDS011;21687;48.900;9.188;2022-12-20T09:16:17;10.47;;;6.77;;
35578;SDS011;21687;48.900;9.188;2022-12-20T09:18:52;21.50;;;7.57;;
35578;SDS011;21687;48.900;9.188;2022-12-20T09:21:21;12.33;;;7.80;;
35578;SDS011;21687;48.900;9.188;2022-12-20T09:23:51;11.33;;;7.30;;
35578;SDS011;21687;48.900;9.188;2022-12-20T09:26:21;9.83;;;6.83;;
35578;SDS011;21687;48.900;9.188;2022-12-20T09:28:49;13.07;;;7.30;;
35578;SDS011;21687;48.900;9.188;2022-12-20T09:31:17;13.47;;;8.13;;
35578;SDS011;21687;48.900;9.188;2022-12-20T09:33:46;21.30;;;11.00;;
35578;SDS011;21687;48.900;9.188;2022-12-20T09:36:14;11.10;;;7.00;;
35578;SDS011;21687;48.900;9.188;2022-12-20T09:38:42;8.17;;;5.83;;
35578;SDS011;21687;48.900;9.188;2022-12-20T09:43:57;9.17;;;6.20;;
35578;SDS011;21687;48.900;9.188;2022-12-20T09:46:29;9.83;;;6.10;;
35578;SDS011;21687;48.900;9.188;2022-12-20T09:48:57;7.63;;;5.67;;
35578;SDS011;21687;48.900;9.188;2022-12-20T09:59:41;8.40;;;5.47;;
35578;SDS011;21687;48.900;9.188;2022-12-20T10:02:12;7.37;;;5.47;;
35578;SDS011;21687;48.900;9.188;2022-12-20T10:04:46;7.77;;;5.93;;
35578;SDS011;21687;48.900;9.188;2022-12-20T10:10:05;7.07;;;5.27;;
35578;SDS011;21687;48.900;9.188;2022-12-20T10:15:31;8.37;;;5.67;;
35578;SDS011;21687;48.900;9.188;2022-12-20T10:18:04;8.03;;;4.83;;
35578;SDS011;21687;48.900;9.188;2022-12-20T10:23:45;12.17;;;6.37;;
35578;SDS011;21687;48.900;9.188;2022-12-20T10:26:21;9.90;;;6.10;;
35578;SDS011;21687;48.900;9.188;2022-12-20T10:28:48;8.03;;;5.87;;
35578;SDS011;21687;48.900;9.188;2022-12-20T10:31:15;11.63;;;7.10;;
35578;SDS011;21687;48.900;9.188;2022-12-20T10:33:43;25.83;;;13.60;;
35578;SDS011;21687;48.900;9.188;2022-12-20T10:36:43;25.43;;;13.63;;
35578;SDS011;21687;48.900;9.188;2022-12-20T10:39:03;61.87;;;24.20;;
35578;SDS011;21687;48.900;9.188;2022-12-20T10:44:26;9.20;;;6.17;;
35578;SDS011;21687;48.900;9.188;2022-12-20T10:46:59;8.90;;;6.03;;
35578;SDS011;21687;48.900;9.188;2022-12-20T10:49:26;8.37;;;6.10;;
35578;SDS011;21687;48.900;9.188;2022-12-20T10:54:40;9.53;;;6.30;;
35578;SDS011;21687;48.900;9.188;2022-12-20T10:57:20;9.97;;;6.77;;
35578;SDS011;21687;48.900;9.188;2022-12-20T10:59:55;9.27;;;6.77;;
35578;SDS011;21687;48.900;9.188;2022-12-20T11:02:25;12.53;;;7.13;;
35578;SDS011;21687;48.900;9.188;2022-12-20T11:07:30;10.03;;;6.77;;
35578;SDS011;21687;48.900;9.188;2022-12-20T11:09:59;11.87;;;7.40;;
35578;SDS011;21687;48.900;9.188;2022-12-20T11:12:28;11.00;;;7.13;;
35578;SDS011;21687;48.900;9.188;2022-12-20T11:17:49;7.90;;;5.60;;
35578;SDS011;21687;48.900;9.188;2022-12-20T11:23:04;9.47;;;6.47;;
35578;SDS011;21687;48.900;9.188;2022-12-20T11:25:54;7.63;;;5.80;;
35578;SDS011;21687;48.900;9.188;2022-12-20T11:31:31;9.00;;;6.27;;
35578;SDS011;21687;48.900;9.188;2022-12-20T11:43:03;8.87;;;6.33;;
35578;SDS011;21687;48.900;9.188;2022-12-20T11:51:44;12.43;;;6.50;;
35578;SDS011;21687;48.900;9.188;2022-12-20T11:54:15;13.37;;;6.23;;
35578;SDS011;21687;48.900;9.188;2022-12-20T11:56:47;10.27;;;6.43;;
35578;SDS011;21687;48.900;9.188;2022-12-20T12:01:50;8.93;;;6.43;;
35578;SDS011;21687;48.900;9.188;2022-12-20T12:04:20;10.67;;;6.30;;
35578;SDS011;21687;48.900;9.188;2022-12-20T12:06:58;9.07;;;6.10;;
35578;SDS011;21687;48.900;9.188;2022-12-20T12:09:44;11.67;;;6.67;;
35578;SDS011;21687;48.900;9.188;2022-12-20T12:12:20;10.87;;;7.00;;
35578;SDS011;21687;48.900;9.188;2022-12-20T12:15:04;29.10;;;14.53;;
35578;SDS011;21687;48.900;9.188;2022-12-20T12:21:09;15.80;;;8.90;;
35578;SDS011;21687;48.900;9.188;2022-12-20T12:23:31;10.17;;;6.70;;
35578;SDS011;21687;48.900;9.188;2022-12-20T12:26:04;7.63;;;5.80;;
35578;SDS011;21687;48.900;9.188;2022-12-20T12:28:42;6.90;;;5.00;;
35578;SDS011;21687;48.900;9.188;2022-12-20T12:31:11;9.70;;;5.57;;
35578;SDS011;21687;48.900;9.188;2022-12-20T12:33:44;8.03;;;5.57;;
35578;SDS011;21687;48.900;9.188;2022-12-20T12:36:25;8.53;;;5.40;;
35578;SDS011;21687;48.900;9.188;2022-12-20T12:47:26;6.93;;;5.57;;
35578;SDS011;21687;48.900;9.188;2022-12-20T12:49:57;10.63;;;5.77;;
35578;SDS011;21687;48.900;9.188;2022-12-20T12:52:27;10.93;;;6.20;;
35578;SDS011;21687;48.900;9.188;2022-12-20T12:55:01;10.07;;;6.60;;
35578;SDS011;21687;48.900;9.188;2022-12-20T12:57:27;13.53;;;8.37;;
35578;SDS011;21687;48.900;9.188;2022-12-20T13:16:51;8.17;;;5.40;;
35578;SDS011;21687;48.900;9.188;2022-12-20T13:21:52;8.67;;;6.30;;
35578;SDS011;21687;48.900;9.188;2022-12-20T13:27:28;8.50;;;5.80;;
35578;SDS011;21687;48.900;9.188;2022-12-20T13:38:00;8.97;;;5.17;;
35578;SDS011;21687;48.900;9.188;2022-12-20T13:40:59;9.83;;;5.07;;
35578;SDS011;21687;48.900;9.188;2022-12-20T13:43:27;8.77;;;4.97;;
35578;SDS011;21687;48.900;9.188;2022-12-20T13:48:41;8.57;;;5.70;;
35578;SDS011;21687;48.900;9.188;2022-12-20T13:51:24;6.83;;;4.60;;
35578;SDS011;21687;48.900;9.188;2022-12-20T13:53:53;5.97;;;4.80;;
35578;SDS011;21687;48.900;9.188;2022-12-20T13:58:57;6.83;;;4.77;;
35578;SDS011;21687;48.900;9.188;2022-12-20T14:01:29;9.37;;;5.30;;
35578;SDS011;21687;48.900;9.188;2022-12-20T14:03:55;8.37;;;4.60;;
35578;SDS011;21687;48.900;9.188;2022-12-20T14:06:22;6.17;;;4.20;;
35578;SDS011;21687;48.900;9.188;2022-12-20T14:08:51;8.37;;;4.80;;
35578;SDS011;21687;48.900;9.188;2022-12-20T14:11:18;6.53;;;4.87;;
35578;SDS011;21687;48.900;9.188;2022-12-20T14:14:00;6.70;;;4.67;;
35578;SDS011;21687;48.900;9.188;2022-12-20T14:16:28;6.70;;;4.73;;
35578;SDS011;21687;48.900;9.188;2022-12-20T14:19:04;8.53;;;5.13;;
35578;SDS011;21687;48.900;9.188;2022-12-20T14:21:35;9.50;;;4.83;;
35578;SDS011;21687;48.900;9.188;2022-12-20T14:24:04;8.50;;;4.73;;
35578;SDS011;21687;48.900;9.188;2022-12-20T14:26:41;9.93;;;5.30;;
35578;SDS011;21687;48.900;9.188;2022-12-20T14:29:09;9.97;;;5.83;;
35578;SDS011;21687;48.900;9.188;2022-12-20T14:31:40;8.90;;;5.20;;
35578;SDS011;21687;48.900;9.188;2022-12-20T14:36:38;8.07;;;4.80;;
35578;SDS011;21687;48.900;9.188;2022-12-20T14:41:56;7.30;;;4.53;;
35578;SDS011;21687;48.900;9.188;2022-12-20T14:44:23;5.43;;;4.40;;
35578;SDS011;21687;48.900;9.188;2022-12-20T14:46:52;6.63;;;4.53;;
35578;SDS011;21687;48.900;9.188;2022-12-20T14:49:29;7.37;;;4.63;;
35578;SDS011;21687;48.900;9.188;2022-12-20T14:52:12;8.57;;;4.60;;
35578;SDS011;21687;48.900;9.188;2022-12-20T14:54:46;5.17;;;4.00;;
35578;SDS011;21687;48.900;9.188;2022-12-20T15:00:00;6.57;;;4.67;;
35578;SDS011;21687;48.900;9.188;2022-12-20T15:10:53;7.80;;;4.70;;
35578;SDS011;21687;48.900;9.188;2022-12-20T15:13:32;12.13;;;4.93;;
35578;SDS011;21687;48.900;9.188;2022-12-20T15:16:15;7.43;;;5.23;;
35578;SDS011;21687;48.900;9.188;2022-12-20T15:18:44;7.77;;;5.00;;
35578;SDS011;21687;48.900;9.188;2022-12-20T15:23:43;8.87;;;6.13;;
35578;SDS011;21687;48.900;9.188;2022-12-20T15:26:14;9.17;;;5.77;;
35578;SDS011;21687;48.900;9.188;2022-12-20T15:28:41;8.50;;;5.93;;
35578;SDS011;21687;48.900;9.188;2022-12-20T15:31:09;10.33;;;6.30;;
35578;SDS011;21687;48.900;9.188;2022-12-20T15:33:40;10.63;;;6.00;;
35578;SDS011;21687;48.900;9.188;2022-12-20T15:36:12;9.83;;;6.27;;
35578;SDS011;21687;48.900;9.188;2022-12-20T15:38:42;19.10;;;7.37;;
35578;SDS011;21687;48.900;9.188;2022-12-20T15:41:21;12.17;;;7.40;;
35578;SDS011;21687;48.900;9.188;2022-12-20T15:43:54;9.77;;;6.20;;
35578;SDS011;21687;48.900;9.188;2022-12-20T15:46:22;10.10;;;5.93;;
35578;SDS011;21687;48.900;9.188;2022-12-20T15:48:49;8.87;;;6.47;;
35578;SDS011;21687;48.900;9.188;2022-12-20T15:54:06;12.47;;;7.53;;
35578;SDS011;21687;48.900;9.188;2022-12-20T15:56:39;10.77;;;6.63;;
35578;SDS011;21687;48.900;9.188;2022-12-20T15:59:05;8.83;;;5.83;;
35578;SDS011;21687;48.900;9.188;2022-12-20T16:01:33;9.37;;;6.33;;
35578;SDS011;21687;48.900;9.188;2022-12-20T16:04:02;7.30;;;5.93;;
35578;SDS011;21687;48.900;9.188;2022-12-20T16:06:29;9.87;;;6.50;;
35578;SDS011;21687;48.900;9.188;2022-12-20T16:08:56;9.97;;;6.63;;
35578;SDS011;21687;48.900;9.188;2022-12-20T16:11:23;9.43;;;6.37;;
35578;SDS011;21687;48.900;9.188;2022-12-20T16:13:52;10.03;;;6.43;;
35578;SDS011;21687;48.900;9.188;2022-12-20T16:16:20;17.63;;;9.57;;
35578;SDS011;21687;48.900;9.188;2022-12-20T16:18:48;19.67;;;11.07;;
35578;SDS011;21687;48.900;9.188;2022-12-20T16:21:22;16.07;;;8.90;;
35578;SDS011;21687;48.900;9.188;2022-12-20T16:23:51;12.10;;;6.90;;
35578;SDS011;21687;48.900;9.188;2022-12-20T16:26:19;10.33;;;6.23;;
35578;SDS011;21687;48.900;9.188;2022-12-20T16:28:47;9.87;;;5.90;;
35578;SDS011;21687;48.900;9.188;2022-12-20T16:31:20;10.50;;;6.37;;
35578;SDS011;21687;48.900;9.188;2022-12-20T16:33:54;10.60;;;6.83;;
35578;SDS011;21687;48.900;9.188;2022-12-20T16:36:22;8.43;;;5.63;;
35578;SDS011;21687;48.900;9.188;2022-12-20T16:38:49;8.60;;;6.10;;
35578;SDS011;21687;48.900;9.188;2022-12-20T16:41:23;8.37;;;6.10;;
35578;SDS011;21687;48.900;9.188;2022-12-20T16:43:52;10.73;;;6.57;;
35578;SDS011;21687;48.900;9.188;2022-12-20T16:46:20;8.07;;;5.90;;
35578;SDS011;21687;48.900;9.188;2022-12-20T16:48:50;11.33;;;6.73;;
35578;SDS011;21687;48.900;9.188;2022-12-20T16:53:55;12.30;;;5.50;;
35578;SDS011;21687;48.900;9.188;2022-12-20T16:56:23;9.27;;;6.27;;
35578;SDS011;21687;48.900;9.188;2022-12-20T16:58:49;8.77;;;6.37;;
35578;SDS011;21687;48.900;9.188;2022-12-20T17:01:16;8.77;;;6.10;;
35578;SDS011;21687;48.900;9.188;2022-12-20T17:03:44;9.80;;;6.13;;
35578;SDS011;21687;48.900;9.188;2022-12-20T17:06:11;12.63;;;7.60;;
35578;SDS011;21687;48.900;9.188;2022-12-20T17:08:38;10.27;;;6.30;;
35578;SDS011;21687;48.900;9.188;2022-12-20T17:11:11;8.43;;;6.10;;